sensor_id;sensor_type;location;lat;lon;timestamp;pressure;altitude;pressure_sealevel;temperature;humidity
35649;BME280;21768;48.562;13.414;2023-07-29T00:00:21;96995.84;;;20.63;72.71
35649;BME280;21768;48.562;13.414;2023-07-29T00:02:47;96994.13;;;20.62;72.71
35649;BME280;21768;48.562;13.414;2023-07-29T00:05:12;96994.03;;;20.57;72.97
35649;BME280;21768;48.562;13.414;2023-07-29T00:07:37;96991.38;;;20.51;72.67
35649;BME280;21768;48.562;13.414;2023-07-29T00:10:03;96989.66;;;20.52;72.25
35649;BME280;21768;48.562;13.414;2023-07-29T00:12:29;96988.72;;;20.47;72.42
35649;BME280;21768;48.562;13.414;2023-07-29T00:14:54;96980.09;;;20.43;72.80
35649;BME280;21768;48.562;13.414;2023-07-29T00:17:20;96973.13;;;20.37;72.74
35649;BME280;21768;48.562;13.414;2023-07-29T00:19:46;96968.72;;;20.32;73.31
35649;BME280;21768;48.562;13.414;2023-07-29T00:22:11;96967.75;;;20.25;73.56
35649;BME280;21768;48.562;13.414;2023-07-29T00:24:37;96971.03;;;20.20;73.75
35649;BME280;21768;48.562;13.414;2023-07-29T00:27:02;96960.72;;;20.17;74.03
35649;BME280;21768;48.562;13.414;2023-07-29T00:29:28;96964.13;;;20.16;74.03
35649;BME280;21768;48.562;13.414;2023-07-29T00:31:53;96969.13;;;20.10;74.11
35649;BME280;21768;48.562;13.414;2023-07-29T00:34:18;96966.44;;;20.03;74.36
35649;BME280;21768;48.562;13.414;2023-07-29T00:36:45;96956.06;;;19.97;74.46
35649;BME280;21768;48.562;13.414;2023-07-29T00:39:11;96957.59;;;19.89;74.43
35649;BME280;21768;48.562;13.414;2023-07-29T00:41:36;96952.25;;;19.80;74.70
35649;BME280;21768;48.562;13.414;2023-07-29T00:44:02;96953.00;;;19.73;74.98
35649;BME280;21768;48.562;13.414;2023-07-29T00:46:28;96952.16;;;19.74;75.22
35649;BME280;21768;48.562;13.414;2023-07-29T00:48:54;96953.78;;;19.70;74.93
35649;BME280;21768;48.562;13.414;2023-07-29T00:51:20;96958.03;;;19.70;75.06
35649;BME280;21768;48.562;13.414;2023-07-29T00:53:46;96957.13;;;19.68;75.15
35649;BME280;21768;48.562;13.414;2023-07-29T00:56:11;96947.75;;;19.68;75.17
35649;BME280;21768;48.562;13.414;2023-07-29T00:58:37;96955.47;;;19.70;75.40
35649;BME280;21768;48.562;13.414;2023-07-29T01:01:02;96946.91;;;19.68;75.27
35649;BME280;21768;48.562;13.414;2023-07-29T01:03:28;96950.25;;;19.65;75.69
35649;BME280;21768;48.562;13.414;2023-07-29T01:06:13;96950.22;;;19.64;75.33
35649;BME280;21768;48.562;13.414;2023-07-29T01:08:51;96942.53;;;19.64;75.49
35649;BME280;21768;48.562;13.414;2023-07-29T01:14:05;96945.94;;;19.63;75.40
35649;BME280;21768;48.562;13.414;2023-07-29T01:16:42;96948.41;;;19.60;75.15
35649;BME280;21768;48.562;13.414;2023-07-29T01:19:34;96950.03;;;19.55;75.30
35649;BME280;21768;48.562;13.414;2023-07-29T01:22:04;96943.97;;;19.51;75.03
35649;BME280;21768;48.562;13.414;2023-07-29T01:24:32;96950.78;;;19.51;75.62
35649;BME280;21768;48.562;13.414;2023-07-29T01:26:57;96952.56;;;19.53;75.56
35649;BME280;21768;48.562;13.414;2023-07-29T01:29:22;96954.28;;;19.54;75.53
35649;BME280;21768;48.562;13.414;2023-07-29T01:31:50;96947.25;;;19.47;75.67
35649;BME280;21768;48.562;13.414;2023-07-29T01:34:34;96956.41;;;19.37;75.95
35649;BME280;21768;48.562;13.414;2023-07-29T01:37:02;96952.94;;;19.35;76.16
35649;BME280;21768;48.562;13.414;2023-07-29T01:39:32;96952.06;;;19.35;76.45
35649;BME280;21768;48.562;13.414;2023-07-29T01:41:58;96953.00;;;19.38;76.50
35649;BME280;21768;48.562;13.414;2023-07-29T01:44:24;96960.69;;;19.38;76.58
35649;BME280;21768;48.562;13.414;2023-07-29T01:46:50;96955.66;;;19.42;76.65
35649;BME280;21768;48.562;13.414;2023-07-29T01:49:15;96962.44;;;19.41;76.70
35649;BME280;21768;48.562;13.414;2023-07-29T01:51:41;96963.31;;;19.42;76.62
35649;BME280;21768;48.562;13.414;2023-07-29T01:54:06;96962.56;;;19.46;76.61
35649;BME280;21768;48.562;13.414;2023-07-29T01:56:31;96960.09;;;19.49;76.66
35649;BME280;21768;48.562;13.414;2023-07-29T01:58:57;96960.88;;;19.46;76.68
35649;BME280;21768;48.562;13.414;2023-07-29T02:01:22;96955.78;;;19.48;76.76
35649;BME280;21768;48.562;13.414;2023-07-29T02:03:48;96966.81;;;19.45;77.01
35649;BME280;21768;48.562;13.414;2023-07-29T02:06:19;96963.34;;;19.43;76.94
35649;BME280;21768;48.562;13.414;2023-07-29T02:08:45;96954.88;;;19.46;76.83
35649;BME280;21768;48.562;13.414;2023-07-29T02:11:10;96963.47;;;19.48;77.17
35649;BME280;21768;48.562;13.414;2023-07-29T02:13:36;96956.63;;;19.47;76.78
35649;BME280;21768;48.562;13.414;2023-07-29T02:16:01;96967.84;;;19.50;76.85
35649;BME280;21768;48.562;13.414;2023-07-29T02:18:26;96950.69;;;19.48;76.92
35649;BME280;21768;48.562;13.414;2023-07-29T02:20:52;96946.47;;;19.50;76.98
35649;BME280;21768;48.562;13.414;2023-07-29T02:23:17;96948.94;;;19.47;77.00
35649;BME280;21768;48.562;13.414;2023-07-29T02:25:43;96953.22;;;19.48;77.20
35649;BME280;21768;48.562;13.414;2023-07-29T02:28:08;96950.63;;;19.46;77.16
35649;BME280;21768;48.562;13.414;2023-07-29T02:30:34;96942.06;;;19.44;77.11
35649;BME280;21768;48.562;13.414;2023-07-29T02:32:59;96947.22;;;19.46;77.21
35649;BME280;21768;48.562;13.414;2023-07-29T02:35:26;96948.13;;;19.48;77.05
35649;BME280;21768;48.562;13.414;2023-07-29T02:37:52;96949.81;;;19.47;76.88
35649;BME280;21768;48.562;13.414;2023-07-29T02:40:17;96954.06;;;19.47;76.86
35649;BME280;21768;48.562;13.414;2023-07-29T02:42:42;96958.34;;;19.48;77.02
35649;BME280;21768;48.562;13.414;2023-07-29T02:45:08;96947.25;;;19.47;77.04
35649;BME280;21768;48.562;13.414;2023-07-29T02:47:37;96950.69;;;19.48;77.13
35649;BME280;21768;48.562;13.414;2023-07-29T02:50:02;96957.50;;;19.47;77.11
35649;BME280;21768;48.562;13.414;2023-07-29T02:52:28;96951.44;;;19.44;77.26
35649;BME280;21768;48.562;13.414;2023-07-29T02:54:53;96957.38;;;19.43;77.38
35649;BME280;21768;48.562;13.414;2023-07-29T02:57:18;96961.75;;;19.47;77.20
35649;BME280;21768;48.562;13.414;2023-07-29T02:59:44;96960.94;;;19.49;77.10
35649;BME280;21768;48.562;13.414;2023-07-29T03:02:11;96960.16;;;19.50;76.55
35649;BME280;21768;48.562;13.414;2023-07-29T03:04:36;96965.19;;;19.49;77.14
35649;BME280;21768;48.562;13.414;2023-07-29T03:07:02;96967.69;;;19.46;77.10
35649;BME280;21768;48.562;13.414;2023-07-29T03:09:28;96966.72;;;19.41;77.12
35649;BME280;21768;48.562;13.414;2023-07-29T03:11:53;96969.19;;;19.37;76.83
35649;BME280;21768;48.562;13.414;2023-07-29T03:14:20;96966.56;;;19.34;77.19
35649;BME280;21768;48.562;13.414;2023-07-29T03:16:46;96968.22;;;19.32;76.97
35649;BME280;21768;48.562;13.414;2023-07-29T03:19:12;96980.09;;;19.30;77.11
35649;BME280;21768;48.562;13.414;2023-07-29T03:21:37;96975.84;;;19.29;77.09
35649;BME280;21768;48.562;13.414;2023-07-29T03:24:03;96974.97;;;19.30;77.11
35649;BME280;21768;48.562;13.414;2023-07-29T03:26:28;96981.81;;;19.30;77.13
35649;BME280;21768;48.562;13.414;2023-07-29T03:28:53;96980.09;;;19.30;77.03
35649;BME280;21768;48.562;13.414;2023-07-29T03:31:19;96980.91;;;19.28;77.16
35649;BME280;21768;48.562;13.414;2023-07-29T03:33:44;96986.91;;;19.28;77.19
35649;BME280;21768;48.562;13.414;2023-07-29T03:36:09;96982.72;;;19.33;77.10
35649;BME280;21768;48.562;13.414;2023-07-29T03:38:35;96993.09;;;19.38;77.04
35649;BME280;21768;48.562;13.414;2023-07-29T03:41:05;96995.69;;;19.40;76.91
35649;BME280;21768;48.562;13.414;2023-07-29T03:43:30;96994.94;;;19.44;77.09
35649;BME280;21768;48.562;13.414;2023-07-29T03:45:56;97006.94;;;19.46;76.76
35649;BME280;21768;48.562;13.414;2023-07-29T03:48:21;97001.03;;;19.49;76.56
35649;BME280;21768;48.562;13.414;2023-07-29T03:50:46;97003.59;;;19.49;76.55
35649;BME280;21768;48.562;13.414;2023-07-29T03:53:12;97012.25;;;19.52;76.78
35649;BME280;21768;48.562;13.414;2023-07-29T03:55:37;97001.22;;;19.55;76.47
35649;BME280;21768;48.562;13.414;2023-07-29T03:58:03;96990.13;;;19.56;76.36
35649;BME280;21768;48.562;13.414;2023-07-29T04:00:28;96996.97;;;19.57;76.53
35649;BME280;21768;48.562;13.414;2023-07-29T04:02:54;96990.13;;;19.56;76.63
35649;BME280;21768;48.562;13.414;2023-07-29T04:05:19;96987.56;;;19.56;76.81
35649;BME280;21768;48.562;13.414;2023-07-29T04:07:45;96996.09;;;19.55;76.74
35649;BME280;21768;48.562;13.414;2023-07-29T04:10:10;96985.00;;;19.56;76.66
35649;BME280;21768;48.562;13.414;2023-07-29T04:12:36;96982.41;;;19.53;76.77
35649;BME280;21768;48.562;13.414;2023-07-29T04:15:01;96978.06;;;19.50;76.84
35649;BME280;21768;48.562;13.414;2023-07-29T04:17:27;96976.31;;;19.49;76.71
35649;BME280;21768;48.562;13.414;2023-07-29T04:19:52;96977.09;;;19.47;76.92
35649;BME280;21768;48.562;13.414;2023-07-29T04:22:17;96976.16;;;19.43;76.80
35649;BME280;21768;48.562;13.414;2023-07-29T04:24:43;96972.69;;;19.41;77.13
35649;BME280;21768;48.562;13.414;2023-07-29T04:27:08;96980.19;;;19.33;76.86
35649;BME280;21768;48.562;13.414;2023-07-29T04:29:33;96984.38;;;19.31;77.17
35649;BME280;21768;48.562;13.414;2023-07-29T04:32:01;96985.16;;;19.27;77.31
35649;BME280;21768;48.562;13.414;2023-07-29T04:34:26;96994.47;;;19.24;77.17
35649;BME280;21768;48.562;13.414;2023-07-29T04:36:52;96997.06;;;19.25;77.35
35649;BME280;21768;48.562;13.414;2023-07-29T04:39:17;97005.56;;;19.24;77.16
35649;BME280;21768;48.562;13.414;2023-07-29T04:41:43;97002.28;;;19.31;77.47
35649;BME280;21768;48.562;13.414;2023-07-29T04:44:09;97001.59;;;19.37;77.36
35649;BME280;21768;48.562;13.414;2023-07-29T04:46:35;96995.75;;;19.43;77.32
35649;BME280;21768;48.562;13.414;2023-07-29T04:49:01;97003.00;;;19.59;77.38
35649;BME280;21768;48.562;13.414;2023-07-29T04:51:27;96992.91;;;19.65;76.95
35649;BME280;21768;48.562;13.414;2023-07-29T04:53:53;96996.50;;;19.73;77.04
35649;BME280;21768;48.562;13.414;2023-07-29T04:56:18;97000.97;;;19.83;76.67
35649;BME280;21768;48.562;13.414;2023-07-29T04:58:43;97002.97;;;19.95;76.47
35649;BME280;21768;48.562;13.414;2023-07-29T05:01:09;96997.19;;;20.03;76.47
35649;BME280;21768;48.562;13.414;2023-07-29T05:03:34;96995.78;;;20.18;76.37
35649;BME280;21768;48.562;13.414;2023-07-29T05:06:00;96995.09;;;20.26;76.11
35649;BME280;21768;48.562;13.414;2023-07-29T05:08:26;97005.47;;;20.32;75.44
35649;BME280;21768;48.562;13.414;2023-07-29T05:10:52;96996.84;;;20.27;75.39
35649;BME280;21768;48.562;13.414;2023-07-29T05:13:18;97004.59;;;20.32;75.33
35649;BME280;21768;48.562;13.414;2023-07-29T05:15:44;97006.50;;;20.39;74.72
35649;BME280;21768;48.562;13.414;2023-07-29T05:18:09;96999.81;;;20.47;74.11
35649;BME280;21768;48.562;13.414;2023-07-29T05:20:35;96993.13;;;20.55;75.02
35649;BME280;21768;48.562;13.414;2023-07-29T05:23:00;96989.00;;;20.62;74.13
35649;BME280;21768;48.562;13.414;2023-07-29T05:25:26;96989.16;;;20.69;74.29
35649;BME280;21768;48.562;13.414;2023-07-29T05:27:52;96993.56;;;20.77;73.79
35649;BME280;21768;48.562;13.414;2023-07-29T05:30:17;96986.78;;;20.82;73.88
35649;BME280;21768;48.562;13.414;2023-07-29T05:32:43;96988.59;;;20.86;73.91
35649;BME280;21768;48.562;13.414;2023-07-29T05:35:08;96990.47;;;20.94;73.86
35649;BME280;21768;48.562;13.414;2023-07-29T05:37:33;96976.94;;;21.03;73.57
35649;BME280;21768;48.562;13.414;2023-07-29T05:39:59;96985.56;;;21.08;73.20
35649;BME280;21768;48.562;13.414;2023-07-29T05:42:24;96989.13;;;21.16;72.98
35649;BME280;21768;48.562;13.414;2023-07-29T05:44:50;96985.88;;;21.23;72.59
35649;BME280;21768;48.562;13.414;2023-07-29T05:47:15;96988.50;;;21.29;72.76
35649;BME280;21768;48.562;13.414;2023-07-29T05:49:41;96980.03;;;21.35;72.19
35649;BME280;21768;48.562;13.414;2023-07-29T05:52:06;96981.91;;;21.44;72.59
35649;BME280;21768;48.562;13.414;2023-07-29T05:54:32;96976.91;;;21.54;71.50
35649;BME280;21768;48.562;13.414;2023-07-29T05:56:58;96972.75;;;21.61;71.51
35649;BME280;21768;48.562;13.414;2023-07-29T05:59:23;96966.88;;;21.68;71.13
35649;BME280;21768;48.562;13.414;2023-07-29T06:01:48;96967.81;;;21.73;71.20
35649;BME280;21768;48.562;13.414;2023-07-29T06:04:14;96971.31;;;21.81;71.09
35649;BME280;21768;48.562;13.414;2023-07-29T06:09:18;96971.50;;;21.92;70.33
35649;BME280;21768;48.562;13.414;2023-07-29T06:14:19;96969.13;;;22.05;70.62
35649;BME280;21768;48.562;13.414;2023-07-29T06:16:45;96969.31;;;22.19;70.07
35649;BME280;21768;48.562;13.414;2023-07-29T06:19:10;96971.22;;;22.35;69.85
35649;BME280;21768;48.562;13.414;2023-07-29T06:21:36;96965.31;;;22.43;69.47
35649;BME280;21768;48.562;13.414;2023-07-29T06:24:01;96968.78;;;22.46;69.02
35649;BME280;21768;48.562;13.414;2023-07-29T06:26:27;96964.63;;;22.59;69.12
35649;BME280;21768;48.562;13.414;2023-07-29T06:28:53;96962.16;;;22.66;68.97
35649;BME280;21768;48.562;13.414;2023-07-29T06:31:18;96962.13;;;22.65;68.58
35649;BME280;21768;48.562;13.414;2023-07-29T06:33:43;96972.44;;;22.66;68.52
35649;BME280;21768;48.562;13.414;2023-07-29T06:36:09;96972.59;;;22.82;68.08
35649;BME280;21768;48.562;13.414;2023-07-29T06:38:34;96966.75;;;22.95;67.77
35649;BME280;21768;48.562;13.414;2023-07-29T06:40:59;96971.28;;;23.20;67.40
35649;BME280;21768;48.562;13.414;2023-07-29T06:43:25;96969.75;;;23.44;65.98
35649;BME280;21768;48.562;13.414;2023-07-29T06:45:50;96971.38;;;23.35;65.14
35649;BME280;21768;48.562;13.414;2023-07-29T06:48:16;96976.41;;;23.20;65.72
35649;BME280;21768;48.562;13.414;2023-07-29T06:50:42;96970.19;;;22.95;66.03
35649;BME280;21768;48.562;13.414;2023-07-29T06:53:09;96969.22;;;22.84;66.79
35649;BME280;21768;48.562;13.414;2023-07-29T06:55:34;96974.41;;;22.89;66.90
35649;BME280;21768;48.562;13.414;2023-07-29T06:57:59;96969.31;;;22.95;66.67
35649;BME280;21768;48.562;13.414;2023-07-29T07:00:25;96972.03;;;23.10;66.43
35649;BME280;21768;48.562;13.414;2023-07-29T07:02:50;96968.56;;;23.06;66.08
35649;BME280;21768;48.562;13.414;2023-07-29T07:05:16;96956.56;;;23.08;66.23
35649;BME280;21768;48.562;13.414;2023-07-29T07:07:41;96954.94;;;23.18;65.07
35649;BME280;21768;48.562;13.414;2023-07-29T07:10:07;96958.47;;;23.32;64.92
35649;BME280;21768;48.562;13.414;2023-07-29T07:12:33;96964.53;;;23.36;64.61
35649;BME280;21768;48.562;13.414;2023-07-29T07:15:00;96957.56;;;23.21;63.94
35649;BME280;21768;48.562;13.414;2023-07-29T07:17:25;96953.38;;;23.38;64.50
35649;BME280;21768;48.562;13.414;2023-07-29T07:19:51;96955.13;;;23.42;63.51
35649;BME280;21768;48.562;13.414;2023-07-29T07:22:16;96959.53;;;23.53;62.72
35649;BME280;21768;48.562;13.414;2023-07-29T07:24:41;96961.16;;;23.45;62.73
35649;BME280;21768;48.562;13.414;2023-07-29T07:27:07;96952.53;;;23.39;62.10
35649;BME280;21768;48.562;13.414;2023-07-29T07:29:32;96943.03;;;23.34;62.17
35649;BME280;21768;48.562;13.414;2023-07-29T07:31:58;96947.34;;;23.36;62.99
35649;BME280;21768;48.562;13.414;2023-07-29T07:34:24;96944.03;;;23.51;62.07
35649;BME280;21768;48.562;13.414;2023-07-29T07:36:49;96938.00;;;23.48;61.87
35649;BME280;21768;48.562;13.414;2023-07-29T07:39:15;96943.28;;;23.61;62.04
35649;BME280;21768;48.562;13.414;2023-07-29T07:41:41;96949.47;;;23.89;61.79
35649;BME280;21768;48.562;13.414;2023-07-29T07:44:07;96948.75;;;24.21;61.07
35649;BME280;21768;48.562;13.414;2023-07-29T07:46:32;96942.78;;;24.29;60.68
35649;BME280;21768;48.562;13.414;2023-07-29T07:48:58;96941.88;;;24.20;59.51
35649;BME280;21768;48.562;13.414;2023-07-29T07:51:23;96942.72;;;24.16;60.17
35649;BME280;21768;48.562;13.414;2023-07-29T07:53:49;96933.28;;;24.22;59.75
35649;BME280;21768;48.562;13.414;2023-07-29T07:56:14;96943.66;;;24.30;59.85
35649;BME280;21768;48.562;13.414;2023-07-29T07:58:40;96934.22;;;24.35;59.07
35649;BME280;21768;48.562;13.414;2023-07-29T08:01:06;96938.56;;;24.53;59.56
35649;BME280;21768;48.562;13.414;2023-07-29T08:03:33;96932.56;;;24.61;58.23
35649;BME280;21768;48.562;13.414;2023-07-29T08:05:59;96930.03;;;24.72;59.02
35649;BME280;21768;48.562;13.414;2023-07-29T08:08:25;96929.16;;;24.84;58.51
35649;BME280;21768;48.562;13.414;2023-07-29T08:10:56;96936.06;;;24.85;57.36
35649;BME280;21768;48.562;13.414;2023-07-29T08:13:22;96942.94;;;24.81;56.95
35649;BME280;21768;48.562;13.414;2023-07-29T08:15:49;96936.03;;;24.69;57.15
35649;BME280;21768;48.562;13.414;2023-07-29T08:18:15;96930.84;;;24.60;59.29
35649;BME280;21768;48.562;13.414;2023-07-29T08:20:41;96916.28;;;24.74;57.94
35649;BME280;21768;48.562;13.414;2023-07-29T08:23:06;96924.00;;;24.77;56.70
35649;BME280;21768;48.562;13.414;2023-07-29T08:25:31;96928.31;;;24.83;56.73
35649;BME280;21768;48.562;13.414;2023-07-29T08:27:57;96927.47;;;24.89;55.89
35649;BME280;21768;48.562;13.414;2023-07-29T08:30:22;96926.63;;;25.06;56.18
35649;BME280;21768;48.562;13.414;2023-07-29T08:32:48;96920.59;;;25.30;54.51
35649;BME280;21768;48.562;13.414;2023-07-29T08:35:13;96923.19;;;25.44;54.36
35649;BME280;21768;48.562;13.414;2023-07-29T08:37:38;96919.75;;;25.42;54.06
35649;BME280;21768;48.562;13.414;2023-07-29T08:40:05;96927.47;;;25.57;54.83
35649;BME280;21768;48.562;13.414;2023-07-29T08:42:31;96929.22;;;25.72;53.77
35649;BME280;21768;48.562;13.414;2023-07-29T08:45:01;96930.94;;;25.73;54.31
35649;BME280;21768;48.562;13.414;2023-07-29T08:47:31;96945.53;;;25.82;53.97
35649;BME280;21768;48.562;13.414;2023-07-29T08:49:57;96955.03;;;25.60;54.35
35649;BME280;21768;48.562;13.414;2023-07-29T08:52:24;96987.78;;;25.23;54.87
35649;BME280;21768;48.562;13.414;2023-07-29T08:54:51;96991.16;;;24.91;55.40
35649;BME280;21768;48.562;13.414;2023-07-29T08:57:18;96996.25;;;24.71;56.81
35649;BME280;21768;48.562;13.414;2023-07-29T08:59:45;97004.78;;;24.52;56.86
35649;BME280;21768;48.562;13.414;2023-07-29T09:02:11;97034.78;;;24.30;58.46
35649;BME280;21768;48.562;13.414;2023-07-29T09:04:37;97030.25;;;23.94;61.23
35649;BME280;21768;48.562;13.414;2023-07-29T09:07:03;97027.25;;;23.42;65.87
35649;BME280;21768;48.562;13.414;2023-07-29T09:09:30;97013.13;;;23.01;66.64
35649;BME280;21768;48.562;13.414;2023-07-29T09:11:56;97010.09;;;22.61;69.01
35649;BME280;21768;48.562;13.414;2023-07-29T09:14:21;97001.16;;;22.32;69.55
35649;BME280;21768;48.562;13.414;2023-07-29T09:16:48;97011.16;;;22.11;70.86
35649;BME280;21768;48.562;13.414;2023-07-29T09:19:14;97008.19;;;21.85;71.96
35649;BME280;21768;48.562;13.414;2023-07-29T09:21:39;96996.75;;;21.63;72.49
35649;BME280;21768;48.562;13.414;2023-07-29T09:24:05;97013.78;;;21.58;73.66
35649;BME280;21768;48.562;13.414;2023-07-29T09:26:32;97003.50;;;21.56;74.40
35649;BME280;21768;48.562;13.414;2023-07-29T09:28:59;97006.03;;;21.55;74.53
35649;BME280;21768;48.562;13.414;2023-07-29T09:31:27;97003.44;;;21.52;74.99
35649;BME280;21768;48.562;13.414;2023-07-29T09:33:59;97006.81;;;21.49;75.28
35649;BME280;21768;48.562;13.414;2023-07-29T09:36:26;97001.66;;;21.48;75.39
35649;BME280;21768;48.562;13.414;2023-07-29T09:38:56;97001.47;;;21.37;75.82
35649;BME280;21768;48.562;13.414;2023-07-29T09:41:23;96992.59;;;21.18;75.87
35649;BME280;21768;48.562;13.414;2023-07-29T09:43:55;96995.81;;;21.08;76.42
35649;BME280;21768;48.562;13.414;2023-07-29T09:46:23;96995.72;;;21.02;76.46
35649;BME280;21768;48.562;13.414;2023-07-29T09:48:49;97006.06;;;21.08;75.89
35649;BME280;21768;48.562;13.414;2023-07-29T09:51:15;97008.00;;;21.20;76.21
35649;BME280;21768;48.562;13.414;2023-07-29T09:53:46;97004.78;;;21.30;75.31
35649;BME280;21768;48.562;13.414;2023-07-29T09:56:12;97003.19;;;21.36;75.53
35649;BME280;21768;48.562;13.414;2023-07-29T09:58:38;97023.81;;;21.43;75.47
35649;BME280;21768;48.562;13.414;2023-07-29T10:01:07;97030.72;;;21.45;74.82
35649;BME280;21768;48.562;13.414;2023-07-29T10:03:34;97030.69;;;21.44;74.70
35649;BME280;21768;48.562;13.414;2023-07-29T10:06:05;97034.91;;;21.40;74.36
35649;BME280;21768;48.562;13.414;2023-07-29T10:08:31;97031.38;;;21.35;74.23
35649;BME280;21768;48.562;13.414;2023-07-29T10:11:01;97029.69;;;21.35;74.50
35649;BME280;21768;48.562;13.414;2023-07-29T10:13:27;97028.00;;;21.37;74.36
35649;BME280;21768;48.562;13.414;2023-07-29T10:15:53;97027.28;;;21.45;74.85
35649;BME280;21768;48.562;13.414;2023-07-29T10:18:19;97027.41;;;21.54;75.67
35649;BME280;21768;48.562;13.414;2023-07-29T10:20:47;97023.28;;;21.63;75.42
35649;BME280;21768;48.562;13.414;2023-07-29T10:23:15;97019.16;;;21.73;75.02
35649;BME280;21768;48.562;13.414;2023-07-29T10:25:46;97005.59;;;21.82;74.96
35649;BME280;21768;48.562;13.414;2023-07-29T10:28:15;97004.94;;;21.95;74.41
35649;BME280;21768;48.562;13.414;2023-07-29T10:30:41;96999.06;;;22.03;74.31
35649;BME280;21768;48.562;13.414;2023-07-29T10:33:06;96998.38;;;22.15;74.32
35649;BME280;21768;48.562;13.414;2023-07-29T10:35:33;96999.44;;;22.31;73.39
35649;BME280;21768;48.562;13.414;2023-07-29T10:38:00;97000.53;;;22.50;72.28
35649;BME280;21768;48.562;13.414;2023-07-29T10:40:43;96992.19;;;23.57;71.14
35649;BME280;21768;48.562;13.414;2023-07-29T10:43:11;96989.44;;;26.07;61.92
35649;BME280;21768;48.562;13.414;2023-07-29T10:45:40;96973.38;;;27.23;56.71
35649;BME280;21768;48.562;13.414;2023-07-29T10:48:09;96970.78;;;28.20;53.69
35649;BME280;21768;48.562;13.414;2023-07-29T10:50:35;96966.25;;;29.60;52.47
35649;BME280;21768;48.562;13.414;2023-07-29T10:53:01;96959.13;;;31.00;48.72
35649;BME280;21768;48.562;13.414;2023-07-29T10:55:32;96952.19;;;31.72;47.63
35649;BME280;21768;48.562;13.414;2023-07-29T10:58:10;96955.47;;;33.30;43.91
35649;BME280;21768;48.562;13.414;2023-07-29T11:00:38;96945.19;;;35.40;40.31
35649;BME280;21768;48.562;13.414;2023-07-29T11:03:06;96944.28;;;37.37;37.00
35649;BME280;21768;48.562;13.414;2023-07-29T11:05:48;96943.88;;;38.31;36.18
35649;BME280;21768;48.562;13.414;2023-07-29T11:08:18;96926.63;;;39.35;33.00
35649;BME280;21768;48.562;13.414;2023-07-29T11:10:57;96917.94;;;39.79;31.37
35649;BME280;21768;48.562;13.414;2023-07-29T11:13:23;96925.91;;;40.22;29.74
35649;BME280;21768;48.562;13.414;2023-07-29T11:15:50;96919.25;;;37.28;32.50
35649;BME280;21768;48.562;13.414;2023-07-29T11:18:16;96910.53;;;36.13;36.94
35649;BME280;21768;48.562;13.414;2023-07-29T11:20:41;96908.84;;;34.88;38.25
35649;BME280;21768;48.562;13.414;2023-07-29T11:23:07;96902.03;;;33.64;39.84
35649;BME280;21768;48.562;13.414;2023-07-29T11:25:32;96900.72;;;32.68;41.67
35649;BME280;21768;48.562;13.414;2023-07-29T11:28:01;96895.88;;;31.96;41.89
35649;BME280;21768;48.562;13.414;2023-07-29T11:30:26;96897.22;;;31.44;43.43
35649;BME280;21768;48.562;13.414;2023-07-29T11:32:54;96893.03;;;31.03;43.81
35649;BME280;21768;48.562;13.414;2023-07-29T11:35:20;96899.59;;;30.43;45.25
35649;BME280;21768;48.562;13.414;2023-07-29T11:37:48;96893.03;;;29.81;47.76
35649;BME280;21768;48.562;13.414;2023-07-29T11:40:15;96894.31;;;29.59;48.22
35649;BME280;21768;48.562;13.414;2023-07-29T11:42:41;96894.75;;;29.31;46.76
35649;BME280;21768;48.562;13.414;2023-07-29T11:45:06;96900.50;;;28.98;46.49
35649;BME280;21768;48.562;13.414;2023-07-29T11:47:33;96914.84;;;28.65;49.50
35649;BME280;21768;48.562;13.414;2023-07-29T11:50:03;96901.34;;;28.40;47.91
35649;BME280;21768;48.562;13.414;2023-07-29T11:52:34;96906.91;;;28.06;47.70
35649;BME280;21768;48.562;13.414;2023-07-29T11:55:01;96909.06;;;27.71;50.44
35649;BME280;21768;48.562;13.414;2023-07-29T11:57:27;96904.91;;;27.47;51.83
35649;BME280;21768;48.562;13.414;2023-07-29T11:59:53;96904.19;;;27.34;52.97
35649;BME280;21768;48.562;13.414;2023-07-29T12:02:20;96896.59;;;27.15;53.62
35649;BME280;21768;48.562;13.414;2023-07-29T12:04:47;96899.28;;;27.01;54.44
35649;BME280;21768;48.562;13.414;2023-07-29T12:07:14;96899.38;;;26.86;56.15
35649;BME280;21768;48.562;13.414;2023-07-29T12:09:41;96901.16;;;26.76;53.70
35649;BME280;21768;48.562;13.414;2023-07-29T12:12:07;96904.69;;;26.66;55.28
35649;BME280;21768;48.562;13.414;2023-07-29T12:14:34;96908.19;;;26.57;57.22
35649;BME280;21768;48.562;13.414;2023-07-29T12:17:04;96910.06;;;26.31;54.98
35649;BME280;21768;48.562;13.414;2023-07-29T12:19:37;96909.28;;;26.06;56.85
35649;BME280;21768;48.562;13.414;2023-07-29T12:22:03;96917.09;;;25.86;59.41
35649;BME280;21768;48.562;13.414;2023-07-29T12:24:30;96909.38;;;25.60;59.86
35649;BME280;21768;48.562;13.414;2023-07-29T12:26:56;96900.81;;;25.41;61.16
35649;BME280;21768;48.562;13.414;2023-07-29T12:29:21;96905.97;;;25.25;60.42
35649;BME280;21768;48.562;13.414;2023-07-29T12:31:47;96912.00;;;25.10;62.03
35649;BME280;21768;48.562;13.414;2023-07-29T12:34:20;96917.16;;;25.01;63.65
35649;BME280;21768;48.562;13.414;2023-07-29T12:36:50;96922.31;;;24.89;64.61
35649;BME280;21768;48.562;13.414;2023-07-29T12:41:42;96934.31;;;24.68;65.74
35649;BME280;21768;48.562;13.414;2023-07-29T12:44:08;96953.19;;;24.52;66.95
35649;BME280;21768;48.562;13.414;2023-07-29T12:46:33;96956.59;;;24.39;67.13
35649;BME280;21768;48.562;13.414;2023-07-29T12:48:58;96964.25;;;24.24;65.52
35649;BME280;21768;48.562;13.414;2023-07-29T12:51:24;96971.00;;;24.03;66.00
35649;BME280;21768;48.562;13.414;2023-07-29T12:53:49;96961.34;;;23.66;66.68
35649;BME280;21768;48.562;13.414;2023-07-29T12:56:14;96949.06;;;23.34;67.17